createdAt,value
2022-08-25T00:02:12.369Z,25.47
2022-08-25T00:05:10.023Z,25.48
2022-08-25T00:08:07.762Z,25.44
2022-08-25T00:11:06.990Z,25.48
2022-08-25T00:14:07.299Z,25.49
2022-08-25T00:17:04.985Z,25.41
2022-08-25T00:20:02.665Z,25.46
2022-08-25T00:23:00.746Z,25.48
2022-08-25T00:25:58.654Z,25.34
2022-08-25T00:29:01.065Z,25.36
2022-08-25T00:31:59.509Z,25.36
2022-08-25T00:34:57.659Z,25.31
2022-08-25T00:37:55.671Z,25.38
2022-08-25T00:41:08.776Z,25.40
2022-08-25T00:44:07.777Z,25.31
2022-08-25T00:47:06.419Z,25.16
2022-08-25T00:50:05.151Z,25.08
2022-08-25T00:53:04.175Z,25.07
2022-08-25T00:56:01.556Z,25.00
2022-08-25T00:58:59.253Z,24.99
2022-08-25T01:01:57.170Z,25.01
2022-08-25T01:04:54.561Z,24.78
2022-08-25T01:07:52.804Z,24.44
2022-08-25T01:10:57.054Z,24.34
2022-08-25T01:13:55.625Z,24.40
2022-08-25T01:16:53.895Z,24.27
2022-08-25T01:19:51.251Z,24.18
2022-08-25T01:22:54.964Z,24.08
2022-08-25T01:26:01.449Z,23.73
2022-08-25T01:29:18.028Z,23.48
2022-08-25T01:32:15.510Z,23.23
2022-08-25T01:35:14.283Z,23.04
2022-08-25T01:38:11.807Z,23.01
2022-08-25T01:41:09.516Z,23.06
2022-08-25T01:44:06.760Z,23.21
2022-08-25T01:47:08.624Z,23.27
2022-08-25T01:50:06.329Z,23.40
2022-08-25T01:53:24.057Z,23.36
2022-08-25T01:56:21.792Z,23.25
2022-08-25T01:59:23.912Z,23.20
2022-08-25T02:02:22.166Z,23.24
2022-08-25T02:05:23.360Z,23.33
2022-08-25T02:08:23.341Z,23.41
2022-08-25T02:11:22.091Z,23.48
2022-08-25T02:14:20.062Z,23.54
2022-08-25T02:17:17.656Z,23.54
2022-08-25T02:20:14.663Z,23.43
2022-08-25T02:23:12.890Z,23.38
2022-08-25T02:26:10.879Z,23.32
2022-08-25T02:29:09.012Z,23.31
2022-08-25T02:32:06.600Z,23.26
2022-08-25T02:35:04.504Z,23.28
2022-08-25T02:38:01.663Z,23.35
2022-08-25T02:40:59.962Z,23.33
2022-08-25T02:43:58.005Z,23.27
2022-08-25T02:46:55.345Z,23.29
2022-08-25T02:49:53.019Z,23.26
2022-08-25T02:52:51.922Z,23.41
2022-08-25T02:55:49.436Z,23.40
2022-08-25T02:58:46.854Z,23.30
2022-08-25T03:01:44.820Z,23.14
2022-08-25T03:04:43.464Z,23.09
2022-08-25T03:07:40.771Z,22.96
2022-08-25T03:10:38.512Z,22.97
2022-08-25T03:13:35.857Z,22.90
2022-08-25T03:16:33.892Z,22.91
2022-08-25T03:19:31.604Z,22.91
2022-08-25T03:22:28.478Z,22.77
2022-08-25T03:25:44.480Z,22.76
2022-08-25T03:28:41.950Z,22.70
2022-08-25T03:31:40.126Z,22.90
2022-08-25T03:34:37.713Z,23.07
2022-08-25T03:37:35.368Z,23.15
2022-08-25T03:40:33.035Z,23.23
2022-08-25T03:43:30.543Z,23.18
2022-08-25T03:46:30.121Z,23.09
2022-08-25T03:49:27.563Z,23.11
2022-08-25T03:52:27.715Z,23.20
2022-08-25T03:55:25.120Z,23.08
2022-08-25T03:58:22.791Z,22.95
2022-08-25T04:01:19.822Z,22.88
2022-08-25T04:04:16.579Z,22.85
2022-08-25T04:07:14.618Z,22.78
2022-08-25T04:10:12.496Z,22.67
2022-08-25T04:13:10.631Z,22.79
2022-08-25T04:16:20.089Z,22.89
2022-08-25T04:19:17.387Z,22.81
2022-08-25T04:22:14.211Z,22.78
2022-08-25T04:25:11.513Z,22.78
2022-08-25T04:28:09.902Z,22.82
2022-08-25T04:31:11.369Z,22.55
2022-08-25T04:34:28.442Z,22.39
2022-08-25T04:37:25.694Z,22.19
2022-08-25T04:40:23.899Z,21.91
2022-08-25T04:43:27.204Z,21.81
2022-08-25T04:46:27.156Z,21.72
2022-08-25T04:49:24.684Z,21.72
2022-08-25T04:52:21.710Z,21.75
2022-08-25T04:55:18.768Z,21.79
2022-08-25T04:58:16.653Z,22.05
2022-08-25T05:01:18.158Z,22.05
2022-08-25T05:04:28.442Z,22.15
2022-08-25T05:07:25.740Z,22.22
2022-08-25T05:10:22.404Z,22.37
2022-08-25T05:13:21.725Z,22.50
2022-08-25T05:16:19.256Z,22.58
2022-08-25T05:19:16.714Z,22.56
2022-08-25T05:22:13.781Z,22.62
2022-08-25T05:25:10.708Z,22.70
2022-08-25T05:28:07.663Z,22.73
2022-08-25T05:31:04.925Z,22.59
2022-08-25T05:34:07.776Z,22.45
2022-08-25T05:37:06.612Z,22.54
2022-08-25T05:40:07.445Z,22.64
2022-08-25T05:43:04.736Z,22.71
2022-08-25T05:46:01.802Z,22.71
2022-08-25T05:48:59.150Z,22.73
2022-08-25T05:51:56.776Z,22.73
2022-08-25T05:54:54.497Z,22.71
2022-08-25T05:57:51.373Z,22.50
2022-08-25T06:00:49.337Z,22.48
2022-08-25T06:03:47.783Z,22.37
2022-08-25T06:06:44.476Z,22.40
2022-08-25T06:09:41.532Z,22.70
2022-08-25T06:12:39.124Z,22.88
2022-08-25T06:15:36.734Z,23.05
2022-08-25T06:18:33.635Z,23.07
2022-08-25T06:21:30.714Z,23.10
2022-08-25T06:24:28.320Z,23.26
2022-08-25T06:27:25.888Z,23.42
2022-08-25T06:30:24.544Z,23.17
2022-08-25T06:33:25.907Z,23.31
2022-08-25T06:36:22.705Z,23.54
2022-08-25T06:39:19.877Z,23.47
2022-08-25T06:42:17.004Z,23.46
2022-08-25T06:45:14.954Z,23.77
2022-08-25T06:48:11.549Z,23.79
2022-08-25T06:51:10.232Z,23.79
2022-08-25T06:54:14.206Z,23.84
2022-08-25T06:57:11.800Z,24.09
2022-08-25T07:00:11.338Z,24.08
2022-08-25T07:03:09.618Z,24.08
2022-08-25T07:06:07.839Z,24.35
2022-08-25T07:09:05.816Z,24.33
2022-08-25T07:12:04.841Z,24.46
2022-08-25T07:15:19.418Z,24.71
2022-08-25T07:18:17.721Z,24.81
2022-08-25T07:21:14.948Z,24.73
2022-08-25T07:24:12.984Z,24.76
2022-08-25T07:27:09.956Z,24.88
2022-08-25T07:30:09.968Z,25.13
2022-08-25T07:33:08.956Z,25.12
2022-08-25T07:36:06.925Z,25.10
2022-08-25T07:39:06.886Z,25.21
2022-08-25T07:42:04.895Z,25.25
2022-08-25T07:45:10.273Z,25.32
2022-08-25T07:48:09.448Z,25.41
2022-08-25T07:51:11.245Z,25.49
2022-08-25T07:54:08.724Z,25.53
2022-08-25T07:57:06.911Z,25.59
2022-08-25T08:00:06.000Z,25.52
2022-08-25T08:03:12.879Z,25.67
2022-08-25T08:06:18.208Z,25.79
2022-08-25T08:09:16.394Z,26.16
2022-08-25T08:12:13.935Z,26.24
2022-08-25T08:15:13.082Z,26.43
2022-08-25T08:18:10.946Z,26.70
2022-08-25T08:21:19.964Z,26.95
2022-08-25T08:24:40.790Z,27.10
2022-08-25T08:27:35.084Z,27.32
2022-08-25T08:30:33.110Z,27.37
2022-08-25T08:33:31.517Z,27.49
2022-08-25T08:36:32.772Z,27.50
2022-08-25T08:39:29.872Z,27.57
2022-08-25T08:42:32.859Z,27.68
2022-08-25T08:45:50.382Z,27.86
2022-08-25T08:49:01.535Z,27.95
2022-08-25T08:52:02.768Z,28.14
2022-08-25T08:55:01.855Z,28.24
2022-08-25T08:58:07.577Z,28.39
2022-08-25T09:01:04.827Z,28.58
2022-08-25T09:04:26.247Z,28.42
2022-08-25T09:07:50.484Z,28.13
2022-08-25T09:11:03.226Z,28.06
2022-08-25T09:14:22.929Z,28.38
2022-08-25T09:17:54.783Z,28.65
2022-08-25T09:21:00.938Z,28.93
2022-08-25T09:24:31.699Z,29.01
2022-08-25T09:27:52.511Z,29.04
2022-08-25T09:31:01.830Z,28.86
2022-08-25T09:34:00.308Z,29.01
2022-08-25T09:36:58.109Z,29.05
2022-08-25T09:39:55.214Z,28.97
2022-08-25T09:42:58.696Z,29.13
2022-08-25T09:46:13.722Z,29.32
2022-08-25T09:49:12.356Z,29.50
2022-08-25T09:52:32.053Z,29.61
2022-08-25T09:55:34.305Z,29.34
2022-08-25T09:58:33.686Z,29.59
2022-08-25T10:01:34.856Z,29.59
2022-08-25T10:04:38.738Z,29.77
2022-08-25T10:07:39.303Z,29.73
2022-08-25T10:10:47.371Z,29.74
2022-08-25T10:13:46.997Z,29.63
2022-08-25T10:16:47.025Z,29.53
2022-08-25T10:19:44.571Z,29.41
2022-08-25T10:22:42.411Z,29.62
2022-08-25T10:25:57.942Z,29.76
2022-08-25T10:29:37.387Z,29.90
2022-08-25T10:33:01.037Z,30.00
2022-08-25T10:36:05.026Z,29.89
2022-08-25T10:39:02.240Z,29.97
2022-08-25T10:42:29.741Z,30.03
2022-08-25T10:45:43.673Z,29.79
2022-08-25T10:48:47.877Z,29.46
2022-08-25T10:52:04.239Z,29.67
2022-08-25T10:55:15.472Z,30.11
2022-08-25T10:58:37.724Z,29.93
2022-08-25T11:01:53.863Z,29.86
2022-08-25T11:04:57.549Z,29.79
2022-08-25T11:08:12.667Z,30.09
2022-08-25T11:11:11.651Z,30.16
2022-08-25T11:14:44.989Z,30.53
2022-08-25T11:17:42.183Z,30.55
2022-08-25T11:20:54.292Z,30.62
2022-08-25T11:24:05.909Z,30.80
2022-08-25T11:27:05.275Z,31.02
2022-08-25T11:30:08.974Z,30.87
2022-08-25T11:33:06.282Z,30.87
2022-08-25T11:36:29.585Z,30.56
2022-08-25T11:39:49.035Z,30.50
2022-08-25T11:43:01.615Z,30.76
2022-08-25T11:46:10.506Z,30.80
2022-08-25T11:49:35.733Z,30.73
2022-08-25T11:52:32.860Z,30.55
2022-08-25T11:55:34.980Z,30.87
2022-08-25T11:58:43.966Z,30.95
2022-08-25T12:01:42.770Z,30.64
2022-08-25T12:04:45.197Z,30.77
2022-08-25T12:08:12.268Z,31.13
2022-08-25T12:11:11.896Z,31.11
2022-08-25T12:14:16.619Z,31.02
2022-08-25T12:17:22.037Z,30.86
2022-08-25T12:20:18.811Z,30.76
2022-08-25T12:23:16.242Z,30.93
2022-08-25T12:26:47.947Z,31.31
2022-08-25T12:29:51.015Z,31.21
2022-08-25T12:33:00.937Z,31.18
2022-08-25T12:36:03.009Z,30.95
2022-08-25T12:39:34.306Z,31.16
2022-08-25T12:42:36.438Z,31.24
2022-08-25T12:45:35.233Z,31.49
2022-08-25T12:48:31.956Z,31.53
2022-08-25T12:52:11.436Z,31.51
2022-08-25T12:55:11.427Z,31.74
2022-08-25T12:58:10.884Z,31.76
2022-08-25T13:01:35.216Z,31.48
2022-08-25T13:04:39.249Z,31.38
2022-08-25T13:07:51.752Z,31.47
2022-08-25T13:11:02.154Z,31.58
2022-08-25T13:14:06.887Z,31.68
2022-08-25T13:17:04.322Z,31.28
2022-08-25T13:20:15.378Z,31.06
2022-08-25T13:23:12.578Z,31.08
2022-08-25T13:26:14.585Z,31.20
2022-08-25T13:29:17.738Z,31.41
2022-08-25T13:32:15.014Z,31.73
2022-08-25T13:35:17.756Z,31.62
2022-08-25T13:38:17.899Z,31.55
2022-08-25T13:41:23.458Z,31.40
2022-08-25T13:44:28.623Z,31.62
2022-08-25T13:47:33.109Z,31.91
2022-08-25T13:50:37.096Z,31.81
2022-08-25T13:53:34.074Z,31.87
2022-08-25T13:56:41.000Z,31.60
2022-08-25T13:59:41.005Z,31.45
2022-08-25T14:02:49.827Z,31.31
2022-08-25T14:05:47.009Z,31.57
2022-08-25T14:09:05.198Z,31.81
2022-08-25T14:12:03.735Z,31.78
2022-08-25T14:15:09.630Z,31.77
2022-08-25T14:18:27.377Z,32.01
2022-08-25T14:21:26.710Z,32.22
2022-08-25T14:24:24.338Z,32.11
2022-08-25T14:27:22.482Z,32.15
2022-08-25T14:30:28.999Z,32.02
2022-08-25T14:33:30.383Z,31.85
2022-08-25T14:36:31.688Z,31.70
2022-08-25T14:39:29.395Z,31.54
2022-08-25T14:42:27.148Z,31.73
2022-08-25T14:45:24.107Z,31.69
2022-08-25T14:48:26.915Z,32.06
2022-08-25T14:51:24.017Z,32.16
2022-08-25T14:54:24.295Z,31.95
2022-08-25T14:57:23.959Z,31.81
2022-08-25T15:00:21.245Z,31.70
2022-08-25T15:03:37.830Z,31.92
2022-08-25T15:06:35.541Z,31.90
2022-08-25T15:09:33.597Z,31.85
2022-08-25T15:12:46.783Z,31.88
2022-08-25T15:15:53.037Z,31.49
2022-08-25T15:18:50.413Z,31.13
2022-08-25T15:21:47.219Z,31.21
2022-08-25T15:24:44.290Z,31.28
2022-08-25T15:27:42.312Z,31.39
2022-08-25T15:30:42.047Z,31.55
2022-08-25T15:33:40.769Z,31.86
2022-08-25T15:36:38.596Z,31.75
2022-08-25T15:39:36.512Z,31.71
2022-08-25T15:42:34.751Z,31.61
2022-08-25T15:45:33.118Z,31.55
2022-08-25T15:48:30.181Z,31.47
2022-08-25T15:51:27.825Z,31.36
2022-08-25T15:54:26.753Z,31.49
2022-08-25T15:57:24.542Z,31.63
2022-08-25T16:00:22.741Z,31.31
2022-08-25T16:03:20.342Z,31.26
2022-08-25T16:06:18.618Z,31.44
2022-08-25T16:09:16.083Z,31.68
2022-08-25T16:12:20.251Z,31.83
2022-08-25T16:15:17.445Z,31.75
2022-08-25T16:18:14.485Z,31.79
2022-08-25T16:21:15.868Z,31.99
2022-08-25T16:24:13.263Z,31.98
2022-08-25T16:27:12.114Z,31.97
2022-08-25T16:30:13.763Z,31.95
2022-08-25T16:33:13.471Z,31.94
2022-08-25T16:36:22.359Z,31.76
2022-08-25T16:39:20.087Z,31.54
2022-08-25T16:42:18.324Z,31.66
2022-08-25T16:45:18.378Z,31.69
2022-08-25T16:48:15.024Z,31.71
2022-08-25T16:51:14.806Z,31.92
2022-08-25T16:54:31.072Z,32.02
2022-08-25T16:57:28.782Z,32.00
2022-08-25T17:00:28.585Z,31.80
2022-08-25T17:03:26.147Z,31.72
2022-08-25T17:06:23.879Z,31.71
2022-08-25T17:09:24.125Z,31.69
2022-08-25T17:12:21.108Z,31.58
2022-08-25T17:15:22.403Z,31.36
2022-08-25T17:18:19.187Z,31.23
2022-08-25T17:21:24.711Z,31.37
2022-08-25T17:24:22.444Z,31.47
2022-08-25T17:27:27.183Z,31.32
2022-08-25T17:30:24.307Z,31.03
2022-08-25T17:33:23.826Z,31.09
2022-08-25T17:36:21.329Z,31.02
2022-08-25T17:39:24.637Z,31.03
2022-08-25T17:42:22.484Z,30.75
2022-08-25T17:45:19.275Z,30.75
2022-08-25T17:48:16.694Z,30.73
2022-08-25T17:51:16.035Z,30.68
2022-08-25T17:54:13.608Z,30.66
2022-08-25T17:57:11.167Z,30.60
2022-08-25T18:00:12.507Z,30.55
2022-08-25T18:03:10.510Z,30.55
2022-08-25T18:06:07.608Z,30.60
2022-08-25T18:09:06.380Z,30.46
2022-08-25T18:12:03.670Z,30.25
2022-08-25T18:15:01.492Z,30.24
2022-08-25T18:17:59.691Z,30.19
2022-08-25T18:20:57.168Z,30.19
2022-08-25T18:23:55.937Z,30.31
2022-08-25T18:26:53.188Z,30.39
2022-08-25T18:29:50.700Z,30.49
2022-08-25T18:32:48.364Z,30.42
2022-08-25T18:35:46.261Z,30.29
2022-08-25T18:39:03.966Z,30.13
2022-08-25T18:42:01.844Z,30.10
2022-08-25T18:44:59.589Z,30.03
2022-08-25T18:47:58.296Z,29.99
2022-08-25T18:50:57.486Z,30.01
2022-08-25T18:53:59.158Z,29.95
2022-08-25T18:56:58.257Z,29.90
2022-08-25T18:59:55.224Z,29.74
2022-08-25T19:02:55.392Z,29.54
2022-08-25T19:05:57.290Z,29.43
2022-08-25T19:08:55.200Z,29.25
2022-08-25T19:11:52.730Z,29.18
2022-08-25T19:14:52.307Z,29.27
2022-08-25T19:17:49.016Z,29.24
2022-08-25T19:20:46.476Z,29.19
2022-08-25T19:23:43.265Z,29.09
2022-08-25T19:26:40.367Z,29.04
2022-08-25T19:29:38.505Z,28.92
2022-08-25T19:32:39.055Z,28.80
2022-08-25T19:35:44.006Z,28.76
2022-08-25T19:38:41.232Z,28.85
2022-08-25T19:41:38.314Z,28.95
2022-08-25T19:44:36.081Z,28.94
2022-08-25T19:47:33.354Z,28.95
2022-08-25T19:50:30.608Z,28.84
2022-08-25T19:53:27.298Z,28.66
2022-08-25T19:56:24.376Z,28.57
2022-08-25T19:59:25.741Z,28.58
2022-08-25T20:02:29.751Z,28.55
2022-08-25T20:05:27.736Z,28.52
2022-08-25T20:08:29.650Z,28.51
2022-08-25T20:11:28.244Z,28.42
2022-08-25T20:14:25.660Z,28.31
2022-08-25T20:17:23.971Z,28.31
2022-08-25T20:20:22.897Z,28.31
2022-08-25T20:23:39.159Z,28.24
2022-08-25T20:26:36.575Z,28.11
2022-08-25T20:29:33.281Z,28.06
2022-08-25T20:32:31.999Z,28.06
2022-08-25T20:35:29.426Z,28.06
2022-08-25T20:38:29.816Z,28.05
2022-08-25T20:41:27.458Z,28.02
2022-08-25T20:44:24.723Z,27.90
2022-08-25T20:47:22.737Z,27.88
2022-08-25T20:50:19.715Z,27.97
2022-08-25T20:53:16.616Z,28.06
2022-08-25T20:56:16.393Z,27.96
2022-08-25T20:59:13.398Z,27.88
2022-08-25T21:02:13.985Z,27.68
2022-08-25T21:05:12.513Z,27.56
2022-08-25T21:08:09.979Z,27.53
2022-08-25T21:11:08.916Z,27.49
2022-08-25T21:14:07.043Z,27.52
2022-08-25T21:17:05.143Z,27.64
2022-08-25T21:20:03.757Z,27.57
2022-08-25T21:23:01.703Z,27.41
2022-08-25T21:25:59.340Z,27.28
2022-08-25T21:28:58.077Z,27.15
2022-08-25T21:31:55.908Z,27.28
2022-08-25T21:34:54.400Z,27.36
2022-08-25T21:37:53.233Z,27.31
2022-08-25T21:40:50.723Z,27.27
2022-08-25T21:43:49.555Z,27.23
2022-08-25T21:46:54.143Z,27.36
2022-08-25T21:49:51.722Z,27.36
2022-08-25T21:52:48.579Z,27.28
2022-08-25T21:55:51.614Z,27.15
2022-08-25T21:58:49.128Z,27.03
2022-08-25T22:01:46.458Z,26.93
2022-08-25T22:04:47.055Z,26.79
2022-08-25T22:07:45.578Z,26.80
2022-08-25T22:10:45.828Z,26.86
2022-08-25T22:13:47.484Z,26.92
2022-08-25T22:16:47.829Z,27.02
2022-08-25T22:19:45.830Z,27.02
2022-08-25T22:22:42.422Z,26.99
2022-08-25T22:25:39.487Z,26.98
2022-08-25T22:28:36.452Z,26.95
2022-08-25T22:31:34.640Z,27.02
2022-08-25T22:34:32.539Z,27.03
2022-08-25T22:37:30.463Z,27.02
2022-08-25T22:40:28.216Z,26.98
2022-08-25T22:43:26.878Z,26.77
2022-08-25T22:46:27.834Z,26.54
2022-08-25T22:49:28.568Z,26.44
2022-08-25T22:52:33.693Z,26.50
2022-08-25T22:55:31.735Z,26.63
2022-08-25T22:58:29.611Z,26.70
2022-08-25T23:01:26.676Z,26.53
2022-08-25T23:04:25.231Z,26.45
2022-08-25T23:07:23.998Z,26.25
2022-08-25T23:10:22.807Z,26.13
2022-08-25T23:13:34.504Z,26.20
2022-08-25T23:16:32.238Z,26.16
2022-08-25T23:19:29.655Z,26.06
2022-08-25T23:22:27.552Z,25.98
2022-08-25T23:25:24.813Z,25.98
2022-08-25T23:28:21.933Z,26.05
2022-08-25T23:31:19.914Z,26.13
2022-08-25T23:34:18.625Z,26.27
2022-08-25T23:37:18.787Z,26.21
2022-08-25T23:40:19.182Z,26.06
2022-08-25T23:43:16.560Z,26.02
2022-08-25T23:46:16.031Z,25.98
2022-08-25T23:49:13.477Z,25.97
2022-08-25T23:52:10.667Z,25.88
2022-08-25T23:55:07.987Z,25.75
2022-08-25T23:58:06.060Z,25.70
